Time;durP1;ratioP1;P1;durP2;ratioP2;P2;SDS_P1;SDS_P2;PMS_P1;PMS_P2;Temp;Humidity;BMP_temperature;BMP_pressure;BME280_temperature;BME280_humidity;BME280_pressure;Samples;Min_cycle;Max_cycle;Signal;HPM_P1;HPM_P2
2022/03/18 00:00:33;;;;;;;50.83;27.13;;;;;;;;;;4958680;28;20059;-67
2022/03/18 00:03:00;;;;;;;45.70;25.73;;;;;;;;;;4959144;29;20099;-68
2022/03/18 00:05:26;;;;;;;44.58;26.33;;;;;;;;;;4959127;29;20044;-69
2022/03/18 00:07:53;;;;;;;48.83;26.50;;;;;;;;;;4958811;29;20035;-67
2022/03/18 00:10:20;;;;;;;44.58;25.40;;;;;;;;;;4942237;29;20055;-68
2022/03/18 00:12:47;;;;;;;43.53;24.70;;;;;;;;;;4959239;29;20043;-69
2022/03/18 00:15:15;;;;;;;41.35;24.50;;;;;;;;;;4958732;29;20071;-67
2022/03/18 00:17:42;;;;;;;41.47;23.45;;;;;;;;;;4957797;29;20035;-69
2022/03/18 00:20:10;;;;;;;41.30;24.30;;;;;;;;;;4958807;29;20064;-67
2022/03/18 00:22:37;;;;;;;41.10;24.33;;;;;;;;;;4959053;29;20032;-69
2022/03/18 00:25:06;;;;;;;39.00;24.25;;;;;;;;;;4977731;28;20722;-69
2022/03/18 00:27:35;;;;;;;39.90;23.80;;;;;;;;;;4973344;28;20051;-69
2022/03/18 00:30:03;;;;;;;41.42;24.30;;;;;;;;;;4954078;28;20490;-69
2022/03/18 00:32:30;;;;;;;35.13;22.15;;;;;;;;;;4953546;28;20095;-69
2022/03/18 00:34:56;;;;;;;38.72;22.98;;;;;;;;;;4952464;29;20102;-69
2022/03/18 00:37:23;;;;;;;38.05;22.23;;;;;;;;;;4953330;29;20051;-70
2022/03/18 00:39:50;;;;;;;34.33;22.77;;;;;;;;;;4953737;28;20051;-69
2022/03/18 00:42:17;;;;;;;37.08;22.45;;;;;;;;;;4953335;29;20051;-69
2022/03/18 00:44:43;;;;;;;38.80;22.42;;;;;;;;;;4936913;29;20052;-70
2022/03/18 00:52:40;;;;;;;33.03;20.77;;;;;;;;;;4934453;29;20118;-69
2022/03/18 00:55:07;;;;;;;34.60;21.00;;;;;;;;;;4934335;29;20052;-69
2022/03/18 00:57:34;;;;;;;29.73;19.67;;;;;;;;;;4934365;29;20124;-70
2022/03/18 01:00:01;;;;;;;34.65;21.35;;;;;;;;;;4934044;29;20048;-68
2022/03/18 01:02:27;;;;;;;33.05;21.83;;;;;;;;;;4935079;29;20111;-69
2022/03/18 01:04:54;;;;;;;34.25;21.35;;;;;;;;;;4937813;29;20051;-69
2022/03/18 01:07:21;;;;;;;31.00;19.77;;;;;;;;;;4936472;29;20439;-70
2022/03/18 01:09:47;;;;;;;34.17;21.35;;;;;;;;;;4937290;29;20047;-69
2022/03/18 01:12:14;;;;;;;36.85;21.17;;;;;;;;;;4937632;29;20074;-67
2022/03/18 01:14:41;;;;;;;33.38;20.83;;;;;;;;;;4953749;29;20047;-67
2022/03/18 01:17:07;;;;;;;33.28;19.88;;;;;;;;;;4956400;29;20043;-67
2022/03/18 01:19:34;;;;;;;33.55;20.88;;;;;;;;;;4955203;29;20051;-69
2022/03/18 01:22:01;;;;;;;32.75;20.15;;;;;;;;;;4956985;29;20047;-68
2022/03/18 01:24:27;;;;;;;31.50;19.77;;;;;;;;;;4942236;28;20056;-69
2022/03/18 01:26:54;;;;;;;28.75;18.95;;;;;;;;;;4937296;29;20044;-68
2022/03/18 01:29:20;;;;;;;29.05;19.60;;;;;;;;;;4937048;29;20114;-68
2022/03/18 01:31:48;;;;;;;28.20;18.58;;;;;;;;;;4937171;29;20107;-68
2022/03/18 01:34:15;;;;;;;31.42;19.35;;;;;;;;;;4949289;29;20055;-68
2022/03/18 01:36:41;;;;;;;30.08;19.42;;;;;;;;;;4956285;29;20051;-68
2022/03/18 01:39:08;;;;;;;29.65;19.20;;;;;;;;;;4958288;29;20505;-68
2022/03/18 01:41:34;;;;;;;29.45;18.77;;;;;;;;;;4955839;29;20055;-69
2022/03/18 01:44:01;;;;;;;31.08;19.75;;;;;;;;;;4945940;28;20569;-69
2022/03/18 01:46:28;;;;;;;28.92;18.05;;;;;;;;;;4936695;29;20569;-70
2022/03/18 01:48:54;;;;;;;28.92;18.85;;;;;;;;;;4936836;29;20139;-68
2022/03/18 01:51:22;;;;;;;28.83;18.83;;;;;;;;;;4936606;29;20052;-68
2022/03/18 01:54:44;;;;;;;25.77;17.30;;;;;;;;;;4937039;29;20060;-68
2022/03/18 01:56:35;;;;;;;28.20;18.30;;;;;;;;;;4936387;29;20047;-68
2022/03/18 01:59:01;;;;;;;26.98;17.13;;;;;;;;;;4935616;29;20047;-68
2022/03/18 02:01:28;;;;;;;29.85;19.20;;;;;;;;;;4938730;29;20123;-68
2022/03/18 02:03:55;;;;;;;28.67;17.30;;;;;;;;;;4954608;29;20110;-68
2022/03/18 02:06:23;;;;;;;31.27;18.60;;;;;;;;;;4955453;29;20051;-68
2022/03/18 02:08:50;;;;;;;28.88;18.10;;;;;;;;;;4955380;28;20074;-69
2022/03/18 02:11:16;;;;;;;27.25;17.75;;;;;;;;;;4954122;29;20114;-69
2022/03/18 02:13:43;;;;;;;27.02;17.27;;;;;;;;;;4955096;28;20067;-68
2022/03/18 02:16:09;;;;;;;27.67;17.58;;;;;;;;;;4954799;29;20055;-68
2022/03/18 02:18:36;;;;;;;28.88;18.17;;;;;;;;;;4954071;29;20494;-68
2022/03/18 02:21:03;;;;;;;28.15;16.85;;;;;;;;;;4954987;28;20101;-69
2022/03/18 02:23:29;;;;;;;29.30;17.25;;;;;;;;;;4937965;29;20052;-68
2022/03/18 02:25:56;;;;;;;27.13;17.67;;;;;;;;;;4935982;29;20498;-69
2022/03/18 02:28:22;;;;;;;25.88;16.63;;;;;;;;;;4936091;29;20048;-69
2022/03/18 02:30:49;;;;;;;33.85;19.10;;;;;;;;;;4935707;29;20109;-68
2022/03/18 02:33:17;;;;;;;27.83;17.58;;;;;;;;;;4936088;29;20055;-69
2022/03/18 02:35:43;;;;;;;28.23;17.42;;;;;;;;;;4935998;29;20119;-69
2022/03/18 02:38:10;;;;;;;28.13;18.08;;;;;;;;;;4935623;29;20051;-69
2022/03/18 02:40:37;;;;;;;25.73;18.02;;;;;;;;;;4934224;29;20494;-68
2022/03/18 02:43:03;;;;;;;25.02;17.25;;;;;;;;;;4936200;29;20478;-69
2022/03/18 02:45:31;;;;;;;24.73;16.92;;;;;;;;;;4935784;29;20055;-68
2022/03/18 02:47:58;;;;;;;28.55;17.85;;;;;;;;;;4935821;29;20056;-68
2022/03/18 02:50:24;;;;;;;25.98;17.98;;;;;;;;;;4935385;29;20048;-68
2022/03/18 02:52:51;;;;;;;24.90;17.45;;;;;;;;;;4945416;29;20473;-68
2022/03/18 02:55:18;;;;;;;27.00;17.05;;;;;;;;;;4954910;28;20051;-68
2022/03/18 02:57:45;;;;;;;35.25;18.98;;;;;;;;;;4953335;29;20051;-69
2022/03/18 03:00:12;;;;;;;29.15;18.17;;;;;;;;;;4954679;28;20102;-68
2022/03/18 03:02:38;;;;;;;29.80;17.17;;;;;;;;;;4953585;29;20106;-68
2022/03/18 03:07:59;;;;;;;27.90;18.05;;;;;;;;;;4954260;28;20051;-68
2022/03/18 03:10:30;;;;;;;28.08;18.95;;;;;;;;;;4955573;28;20086;-69
2022/03/18 03:12:59;;;;;;;24.77;16.80;;;;;;;;;;4954080;28;20058;-67
2022/03/18 03:15:26;;;;;;;25.85;17.08;;;;;;;;;;4954443;28;20051;-68
2022/03/18 03:17:53;;;;;;;27.88;16.88;;;;;;;;;;4954310;28;20103;-67
2022/03/18 03:20:20;;;;;;;29.25;17.85;;;;;;;;;;4954033;28;20179;-67
2022/03/18 03:22:46;;;;;;;27.35;17.60;;;;;;;;;;4952865;29;20490;-67
2022/03/18 03:25:13;;;;;;;29.05;17.83;;;;;;;;;;4954137;28;20051;-67
2022/03/18 03:27:40;;;;;;;25.67;17.30;;;;;;;;;;4953743;29;20051;-68
2022/03/18 03:30:08;;;;;;;29.38;17.88;;;;;;;;;;4954001;28;20055;-67
2022/03/18 03:32:35;;;;;;;28.33;18.08;;;;;;;;;;4954192;28;20051;-67
2022/03/18 03:35:01;;;;;;;24.13;17.23;;;;;;;;;;4953864;29;20055;-69
2022/03/18 03:37:28;;;;;;;27.73;17.23;;;;;;;;;;4954005;28;20051;-69
2022/03/18 03:39:55;;;;;;;29.58;17.75;;;;;;;;;;4953793;29;20062;-68
2022/03/18 03:42:21;;;;;;;29.67;18.42;;;;;;;;;;4949217;28;20047;-70
2022/03/18 03:44:48;;;;;;;29.75;17.67;;;;;;;;;;4934525;29;20098;-68
2022/03/18 03:47:15;;;;;;;27.15;17.85;;;;;;;;;;4934822;29;20553;-68
2022/03/18 03:49:42;;;;;;;26.63;18.10;;;;;;;;;;4934519;29;20099;-68
2022/03/18 03:52:08;;;;;;;24.77;17.10;;;;;;;;;;4950907;29;20413;-68
2022/03/18 03:54:37;;;;;;;28.00;17.08;;;;;;;;;;4967599;29;20051;-67
2022/03/18 03:57:04;;;;;;;29.48;18.30;;;;;;;;;;4969497;28;20074;-68
2022/03/18 03:59:31;;;;;;;30.20;19.25;;;;;;;;;;4969351;28;20055;-68
2022/03/18 04:01:58;;;;;;;28.20;18.40;;;;;;;;;;4970572;29;20051;-68
2022/03/18 04:04:26;;;;;;;32.42;19.30;;;;;;;;;;4970898;28;20083;-68
2022/03/18 04:06:53;;;;;;;28.33;17.98;;;;;;;;;;4966490;28;20055;-68
2022/03/18 04:09:19;;;;;;;27.17;18.70;;;;;;;;;;4968593;28;20047;-68
2022/03/18 04:11:46;;;;;;;31.08;18.88;;;;;;;;;;4971233;28;20035;-68
2022/03/18 04:14:13;;;;;;;28.13;17.83;;;;;;;;;;4966196;29;20079;-69
2022/03/18 04:16:39;;;;;;;29.40;18.23;;;;;;;;;;4970441;28;20082;-69
2022/03/18 04:19:06;;;;;;;30.73;17.42;;;;;;;;;;4970368;28;20058;-69
2022/03/18 04:21:33;;;;;;;27.42;17.73;;;;;;;;;;4970958;28;20055;-68
2022/03/18 04:23:59;;;;;;;31.42;19.27;;;;;;;;;;4970325;28;20055;-68
2022/03/18 04:26:26;;;;;;;29.88;17.90;;;;;;;;;;4969068;29;20071;-67
2022/03/18 04:28:52;;;;;;;29.38;18.55;;;;;;;;;;4969118;28;20079;-66
2022/03/18 04:31:19;;;;;;;29.45;19.33;;;;;;;;;;4970040;28;20087;-69
2022/03/18 04:33:46;;;;;;;68.18;20.17;;;;;;;;;;4969408;28;20112;-69
2022/03/18 04:36:13;;;;;;;35.63;19.40;;;;;;;;;;4970060;28;20134;-68
2022/03/18 04:38:39;;;;;;;34.30;20.13;;;;;;;;;;4971639;28;20047;-69
2022/03/18 04:41:09;;;;;;;32.15;19.27;;;;;;;;;;4970791;28;20051;-69
2022/03/18 04:43:36;;;;;;;35.95;20.45;;;;;;;;;;4965225;29;20078;-67
2022/03/18 04:46:03;;;;;;;30.63;18.13;;;;;;;;;;4958338;29;20066;-68
2022/03/18 04:48:29;;;;;;;33.90;19.58;;;;;;;;;;4958190;29;20047;-68
2022/03/18 04:50:57;;;;;;;30.05;19.15;;;;;;;;;;4957589;29;20342;-68
2022/03/18 04:53:23;;;;;;;31.95;20.00;;;;;;;;;;4945648;28;20060;-68
2022/03/18 04:55:50;;;;;;;28.70;19.05;;;;;;;;;;4938818;29;20052;-69
2022/03/18 04:58:16;;;;;;;30.88;19.38;;;;;;;;;;4938536;29;20099;-70
2022/03/18 05:00:43;;;;;;;31.15;19.00;;;;;;;;;;4941919;29;20051;-69
2022/03/18 05:03:10;;;;;;;32.42;18.42;;;;;;;;;;4946146;29;20044;-69
2022/03/18 05:05:38;;;;;;;31.67;18.70;;;;;;;;;;4938272;29;20131;-69
2022/03/18 05:08:04;;;;;;;28.70;18.17;;;;;;;;;;4942048;29;20114;-70
2022/03/18 05:10:31;;;;;;;28.60;18.20;;;;;;;;;;4938164;29;20055;-68
2022/03/18 05:12:57;;;;;;;29.73;19.25;;;;;;;;;;4937826;29;20558;-69
2022/03/18 05:15:24;;;;;;;30.50;18.40;;;;;;;;;;4938090;29;20383;-69
2022/03/18 05:17:54;;;;;;;28.70;18.80;;;;;;;;;;4938100;29;20051;-67
2022/03/18 05:20:24;;;;;;;29.23;18.58;;;;;;;;;;4937703;29;20055;-68
2022/03/18 05:22:53;;;;;;;31.38;19.23;;;;;;;;;;4937750;29;20106;-70
2022/03/18 05:25:23;;;;;;;28.67;17.98;;;;;;;;;;4937987;29;20067;-67
2022/03/18 05:27:52;;;;;;;29.98;18.85;;;;;;;;;;4966244;23;20545;-67
2022/03/18 05:30:19;;;;;;;32.15;19.00;;;;;;;;;;4942841;29;20150;-66
2022/03/18 05:32:46;;;;;;;29.35;18.15;;;;;;;;;;4937468;29;20557;-66
2022/03/18 05:35:13;;;;;;;30.58;19.00;;;;;;;;;;4937611;29;20498;-69
2022/03/18 05:37:40;;;;;;;33.47;19.52;;;;;;;;;;4937354;29;20482;-69
2022/03/18 05:40:08;;;;;;;29.13;18.67;;;;;;;;;;4936913;29;20058;-69
2022/03/18 05:42:35;;;;;;;29.80;17.55;;;;;;;;;;4937155;29;20458;-68
2022/03/18 05:45:02;;;;;;;28.48;18.55;;;;;;;;;;4937565;29;20388;-69
2022/03/18 05:47:29;;;;;;;30.70;19.20;;;;;;;;;;4938424;29;20060;-69
2022/03/18 05:49:56;;;;;;;30.27;19.58;;;;;;;;;;4936535;29;20406;-69
2022/03/18 05:52:24;;;;;;;30.80;20.55;;;;;;;;;;4919377;29;20052;-69
2022/03/18 05:54:50;;;;;;;29.15;19.05;;;;;;;;;;4937018;29;20474;-69
2022/03/18 05:57:17;;;;;;;33.78;19.83;;;;;;;;;;4937162;29;20055;-68
2022/03/18 05:59:43;;;;;;;31.92;20.15;;;;;;;;;;4935436;29;20561;-69
2022/03/18 06:02:10;;;;;;;32.72;20.17;;;;;;;;;;4936071;29;20106;-69
2022/03/18 06:04:37;;;;;;;30.42;19.25;;;;;;;;;;4936873;29;20083;-69
2022/03/18 06:07:05;;;;;;;30.35;18.65;;;;;;;;;;4935639;29;20047;-68
2022/03/18 06:12:18;;;;;;;31.70;19.10;;;;;;;;;;4936451;29;20107;-69
2022/03/18 06:14:45;;;;;;;29.55;19.17;;;;;;;;;;4936571;29;20051;-69
2022/03/18 06:17:11;;;;;;;33.72;20.60;;;;;;;;;;4936565;29;20115;-69
2022/03/18 06:19:38;;;;;;;34.92;20.55;;;;;;;;;;4936538;29;20044;-69
2022/03/18 06:22:05;;;;;;;31.88;18.80;;;;;;;;;;4936149;29;20095;-67
2022/03/18 06:24:32;;;;;;;31.25;19.95;;;;;;;;;;4936963;29;20463;-67
2022/03/18 06:26:58;;;;;;;32.90;20.10;;;;;;;;;;4936657;29;20051;-66
2022/03/18 06:29:25;;;;;;;38.97;21.48;;;;;;;;;;4934027;29;20043;-65
2022/03/18 06:31:52;;;;;;;33.13;20.85;;;;;;;;;;4934070;29;20498;-66
2022/03/18 06:34:20;;;;;;;37.58;20.67;;;;;;;;;;4934362;29;20332;-67
2022/03/18 06:36:48;;;;;;;32.75;20.35;;;;;;;;;;4934100;29;20498;-67
2022/03/18 06:39:15;;;;;;;34.28;20.42;;;;;;;;;;4934137;29;20044;-66
2022/03/18 06:41:42;;;;;;;33.60;20.60;;;;;;;;;;4933594;29;20199;-66
2022/03/18 06:44:08;;;;;;;33.00;20.50;;;;;;;;;;4933641;29;20107;-67
2022/03/18 06:46:38;;;;;;;32.58;20.95;;;;;;;;;;4934366;29;20109;-67
2022/03/18 06:49:06;;;;;;;35.17;21.85;;;;;;;;;;4934219;29;20051;-67
2022/03/18 06:51:33;;;;;;;33.80;20.90;;;;;;;;;;4933775;29;20055;-66
2022/03/18 06:54:00;;;;;;;38.67;21.95;;;;;;;;;;4932868;29;20052;-66
2022/03/18 06:56:27;;;;;;;35.28;21.15;;;;;;;;;;4933400;29;20060;-67
2022/03/18 06:58:54;;;;;;;34.60;20.92;;;;;;;;;;4933998;29;20111;-67
2022/03/18 07:01:21;;;;;;;35.60;21.75;;;;;;;;;;4933199;29;20060;-66
2022/03/18 07:03:48;;;;;;;35.78;22.38;;;;;;;;;;4933740;29;20051;-67
2022/03/18 07:06:15;;;;;;;38.17;22.48;;;;;;;;;;4933704;29;20570;-66
2022/03/18 07:08:41;;;;;;;35.05;21.33;;;;;;;;;;4933073;29;20557;-66
2022/03/18 07:11:13;;;;;;;37.42;24.02;;;;;;;;;;4933284;29;20494;-66
2022/03/18 07:13:42;;;;;;;37.05;23.38;;;;;;;;;;4933709;29;20170;-66
2022/03/18 07:18:54;;;;;;;35.80;23.40;;;;;;;;;;4933602;29;20043;-66
2022/03/18 07:21:21;;;;;;;40.35;24.02;;;;;;;;;;4932949;29;20079;-66
2022/03/18 07:23:48;;;;;;;39.97;24.38;;;;;;;;;;4933864;29;20137;-67
2022/03/18 07:26:14;;;;;;;39.35;24.75;;;;;;;;;;4933618;29;20482;-68
2022/03/18 07:28:41;;;;;;;41.75;24.80;;;;;;;;;;4933257;29;20056;-67
2022/03/18 07:31:07;;;;;;;41.03;25.55;;;;;;;;;;4931905;29;20086;-66
2022/03/18 07:33:34;;;;;;;43.55;26.05;;;;;;;;;;4933239;29;20064;-66
2022/03/18 07:36:01;;;;;;;41.60;25.73;;;;;;;;;;4932618;29;20059;-66
2022/03/18 07:38:27;;;;;;;44.80;26.33;;;;;;;;;;4933512;29;20047;-66
2022/03/18 07:40:54;;;;;;;40.83;25.45;;;;;;;;;;4919276;29;20052;-68
2022/03/18 07:43:20;;;;;;;36.92;24.67;;;;;;;;;;4924275;29;20059;-66
2022/03/18 07:45:47;;;;;;;40.50;25.67;;;;;;;;;;4921132;29;20047;-67
2022/03/18 07:48:14;;;;;;;39.05;24.48;;;;;;;;;;4918121;29;20135;-66
2022/03/18 07:50:40;;;;;;;45.50;25.95;;;;;;;;;;4920008;29;20425;-67
2022/03/18 07:53:08;;;;;;;41.55;25.63;;;;;;;;;;4921275;29;20060;-67
2022/03/18 07:55:37;;;;;;;37.83;24.00;;;;;;;;;;4921305;29;20048;-68
2022/03/18 07:58:06;;;;;;;41.05;25.08;;;;;;;;;;4920948;29;20495;-67
2022/03/18 08:00:33;;;;;;;38.15;25.17;;;;;;;;;;4923517;29;20080;-67
2022/03/18 08:03:01;;;;;;;40.97;25.02;;;;;;;;;;4920090;29;20056;-66
2022/03/18 08:05:27;;;;;;;42.13;24.58;;;;;;;;;;4923732;29;20113;-68
2022/03/18 08:07:56;;;;;;;37.55;24.63;;;;;;;;;;4919474;29;20126;-67
2022/03/18 08:10:23;;;;;;;37.78;24.27;;;;;;;;;;4922356;29;20052;-69
2022/03/18 08:12:50;;;;;;;37.75;24.05;;;;;;;;;;4925062;29;20071;-66
2022/03/18 08:15:17;;;;;;;40.25;24.65;;;;;;;;;;4906108;29;20059;-65
2022/03/18 08:17:44;;;;;;;40.75;24.95;;;;;;;;;;4924158;29;20044;-66
2022/03/18 08:20:12;;;;;;;39.13;23.95;;;;;;;;;;4921185;29;20048;-66
2022/03/18 08:22:40;;;;;;;37.22;25.17;;;;;;;;;;4926632;29;20099;-66
2022/03/18 08:25:07;;;;;;;36.95;23.23;;;;;;;;;;4922697;29;20056;-67
2022/03/18 08:27:33;;;;;;;39.13;23.67;;;;;;;;;;4923677;29;20122;-66
2022/03/18 08:30:01;;;;;;;35.80;22.65;;;;;;;;;;4922167;29;20060;-66
2022/03/18 08:32:29;;;;;;;37.40;22.70;;;;;;;;;;4921264;29;20319;-67
2022/03/18 08:34:56;;;;;;;37.17;23.42;;;;;;;;;;4922476;29;20499;-66
2022/03/18 08:40:10;;;;;;;45.72;26.80;;;;;;;;;;4924898;29;20043;-65
2022/03/18 08:42:37;;;;;;;39.03;24.00;;;;;;;;;;4925190;29;20063;-67
2022/03/18 08:45:04;;;;;;;35.38;21.77;;;;;;;;;;4923794;29;20058;-71
2022/03/18 08:47:31;;;;;;;32.55;20.35;;;;;;;;;;4922257;29;20052;-70
2022/03/18 08:49:58;;;;;;;33.63;19.83;;;;;;;;;;4923723;29;20048;-71
2022/03/18 08:52:25;;;;;;;35.10;20.23;;;;;;;;;;4926758;29;20107;-70
2022/03/18 08:54:51;;;;;;;32.83;20.27;;;;;;;;;;4929453;29;20091;-65
2022/03/18 08:57:18;;;;;;;31.83;19.90;;;;;;;;;;4916706;29;20052;-66
2022/03/18 08:59:44;;;;;;;31.38;19.63;;;;;;;;;;4916684;29;20071;-64
2022/03/18 09:02:11;;;;;;;29.30;18.48;;;;;;;;;;4927450;29;20126;-65
2022/03/18 09:04:38;;;;;;;33.05;20.40;;;;;;;;;;4935735;29;20506;-65
2022/03/18 09:07:10;;;;;;;32.30;19.07;;;;;;;;;;4936213;29;20055;-65
2022/03/18 09:09:37;;;;;;;33.55;18.25;;;;;;;;;;4936560;29;20091;-64
2022/03/18 09:12:04;;;;;;;31.52;18.73;;;;;;;;;;4936865;29;20498;-64
2022/03/18 09:14:31;;;;;;;31.17;18.48;;;;;;;;;;4936793;29;20326;-64
2022/03/18 09:16:57;;;;;;;32.22;19.58;;;;;;;;;;4936430;29;20114;-64
2022/03/18 09:19:24;;;;;;;31.63;18.73;;;;;;;;;;4937229;29;20040;-64
2022/03/18 09:21:51;;;;;;;32.38;19.50;;;;;;;;;;4936662;29;20052;-64
2022/03/18 09:24:18;;;;;;;32.80;20.50;;;;;;;;;;4937211;29;20051;-64
2022/03/18 09:26:45;;;;;;;28.58;18.73;;;;;;;;;;4937248;29;20059;-64
2022/03/18 09:29:12;;;;;;;32.30;20.77;;;;;;;;;;4937295;29;20047;-64
2022/03/18 09:31:39;;;;;;;30.98;18.98;;;;;;;;;;4937095;29;20525;-64
2022/03/18 09:34:05;;;;;;;30.17;19.73;;;;;;;;;;4937320;29;20063;-64
2022/03/18 09:36:32;;;;;;;33.88;20.05;;;;;;;;;;4936974;29;20048;-64
2022/03/18 09:38:59;;;;;;;31.27;19.58;;;;;;;;;;4939585;29;20048;-64
2022/03/18 09:41:25;;;;;;;33.95;20.88;;;;;;;;;;4938578;29;20111;-64
2022/03/18 09:43:52;;;;;;;33.50;19.55;;;;;;;;;;4937466;29;20047;-65
2022/03/18 09:46:19;;;;;;;31.58;19.67;;;;;;;;;;4937059;29;20056;-64
2022/03/18 09:49:02;;;;;;;30.45;19.40;;;;;;;;;;4936910;29;20467;-64
2022/03/18 09:51:29;;;;;;;38.75;22.05;;;;;;;;;;4936775;29;20103;-64
2022/03/18 09:54:16;;;;;;;36.35;20.50;;;;;;;;;;4936792;29;20139;-64
2022/03/18 09:56:47;;;;;;;32.22;20.83;;;;;;;;;;4936772;29;20052;-64
2022/03/18 09:59:14;;;;;;;28.58;18.90;;;;;;;;;;4936799;29;20454;-64
2022/03/18 10:01:41;;;;;;;32.50;20.10;;;;;;;;;;4936420;29;20106;-64
2022/03/18 10:04:11;;;;;;;34.47;20.58;;;;;;;;;;4936795;29;20057;-64
2022/03/18 10:06:41;;;;;;;31.85;20.40;;;;;;;;;;4936798;29;20062;-64
2022/03/18 10:09:09;;;;;;;32.60;19.55;;;;;;;;;;4936612;29;20051;-64
2022/03/18 10:11:37;;;;;;;34.30;21.52;;;;;;;;;;4935137;29;20507;-65
2022/03/18 10:14:08;;;;;;;34.95;20.40;;;;;;;;;;4936590;29;20421;-65
2022/03/18 10:16:45;;;;;;;34.58;21.40;;;;;;;;;;4936069;29;20048;-64
2022/03/18 10:19:14;;;;;;;33.92;20.58;;;;;;;;;;4936504;29;20063;-64
2022/03/18 10:21:57;;;;;;;33.88;21.63;;;;;;;;;;4936360;29;20052;-64
2022/03/18 10:24:31;;;;;;;32.08;20.50;;;;;;;;;;4936658;29;20055;-64
2022/03/18 10:27:18;;;;;;;32.08;20.25;;;;;;;;;;4935782;29;20102;-65
2022/03/18 10:29:46;;;;;;;33.03;22.50;;;;;;;;;;4935794;29;20198;-65
2022/03/18 10:32:16;;;;;;;35.72;21.67;;;;;;;;;;4935866;29;20134;-65
2022/03/18 10:37:48;;;;;;;32.05;22.45;;;;;;;;;;4935742;29;20048;-64
2022/03/18 10:40:31;;;;;;;32.13;21.17;;;;;;;;;;4935831;29;20056;-65
2022/03/18 10:42:59;;;;;;;33.63;21.50;;;;;;;;;;4935774;29;20051;-65
2022/03/18 10:45:25;;;;;;;30.17;20.17;;;;;;;;;;4935887;29;20706;-64
2022/03/18 10:47:52;;;;;;;35.20;22.33;;;;;;;;;;4934204;29;20055;-65
2022/03/18 10:50:29;;;;;;;31.23;20.30;;;;;;;;;;4935414;29;20483;-65
2022/03/18 10:52:59;;;;;;;38.85;22.17;;;;;;;;;;4935434;29;20108;-65
2022/03/18 10:55:44;;;;;;;29.45;19.80;;;;;;;;;;4935764;29;20111;-65
2022/03/18 10:58:13;;;;;;;34.28;21.55;;;;;;;;;;4935413;29;20083;-65
2022/03/18 11:00:41;;;;;;;30.38;20.52;;;;;;;;;;4935266;29;20056;-65
2022/03/18 11:03:08;;;;;;;28.45;20.17;;;;;;;;;;4935200;29;20067;-65
2022/03/18 11:05:39;;;;;;;30.33;20.67;;;;;;;;;;4934126;29;20485;-65
2022/03/18 11:08:09;;;;;;;34.42;21.45;;;;;;;;;;4935235;29;20048;-65
2022/03/18 11:13:28;;;;;;;31.00;21.30;;;;;;;;;;4934324;29;20051;-64
2022/03/18 11:15:55;;;;;;;33.17;20.17;;;;;;;;;;4935283;29;20055;-65
2022/03/18 11:18:22;;;;;;;30.30;20.40;;;;;;;;;;4933812;29;20055;-65
2022/03/18 11:20:50;;;;;;;30.80;20.77;;;;;;;;;;4933976;29;20047;-65
2022/03/18 11:23:19;;;;;;;29.25;20.65;;;;;;;;;;4934564;29;20064;-65
2022/03/18 11:25:49;;;;;;;34.47;21.05;;;;;;;;;;4935036;29;20523;-66
2022/03/18 11:28:18;;;;;;;31.67;20.67;;;;;;;;;;4934436;29;20502;-65
2022/03/18 11:30:47;;;;;;;35.78;22.38;;;;;;;;;;4934026;29;20048;-65
2022/03/18 11:33:13;;;;;;;29.33;19.83;;;;;;;;;;4935211;29;20103;-64
2022/03/18 11:35:49;;;;;;;32.05;21.20;;;;;;;;;;4934958;29;20052;-64
2022/03/18 11:38:25;;;;;;;33.03;21.52;;;;;;;;;;4935097;29;20309;-65
2022/03/18 11:41:03;;;;;;;30.60;20.02;;;;;;;;;;4934852;29;20115;-65
2022/03/18 11:43:42;;;;;;;31.08;21.45;;;;;;;;;;4934749;29;20126;-65
2022/03/18 11:46:19;;;;;;;31.73;20.95;;;;;;;;;;4935205;29;20047;-64
2022/03/18 11:49:06;;;;;;;28.23;20.50;;;;;;;;;;4934818;29;20055;-65
2022/03/18 11:51:37;;;;;;;30.80;20.92;;;;;;;;;;4934717;29;20494;-64
2022/03/18 11:54:16;;;;;;;30.00;20.38;;;;;;;;;;4934692;29;20051;-65
2022/03/18 11:57:03;;;;;;;27.45;19.90;;;;;;;;;;4933673;29;20090;-64
2022/03/18 11:59:29;;;;;;;31.52;21.45;;;;;;;;;;4934268;29;20083;-65
2022/03/18 12:01:59;;;;;;;33.67;22.35;;;;;;;;;;4934399;29;20051;-65
2022/03/18 12:04:41;;;;;;;32.30;22.23;;;;;;;;;;4934450;29;20083;-65
2022/03/18 12:07:15;;;;;;;28.57;20.33;;;;;;;;;;4934819;29;20062;-65
2022/03/18 12:10:14;;;;;;;31.85;20.83;;;;;;;;;;4933265;29;20300;-65
2022/03/18 12:12:46;;;;;;;31.50;22.35;;;;;;;;;;4933378;29;20056;-65
2022/03/18 12:15:17;;;;;;;30.92;22.67;;;;;;;;;;4934645;29;20421;-65
2022/03/18 12:17:48;;;;;;;31.20;22.90;;;;;;;;;;4934530;29;20433;-65
2022/03/18 12:20:25;;;;;;;30.05;20.42;;;;;;;;;;4934121;29;20399;-64
2022/03/18 12:22:53;;;;;;;31.38;21.58;;;;;;;;;;4933785;29;20048;-64
2022/03/18 12:25:23;;;;;;;31.42;21.50;;;;;;;;;;4934417;29;20052;-65
2022/03/18 12:27:50;;;;;;;32.38;22.05;;;;;;;;;;4934086;29;20055;-65
2022/03/18 12:30:26;;;;;;;30.75;21.30;;;;;;;;;;4934141;29;20088;-65
2022/03/18 12:33:00;;;;;;;31.67;21.48;;;;;;;;;;4934397;29;20103;-65
2022/03/18 12:35:31;;;;;;;34.05;23.77;;;;;;;;;;4934369;29;20052;-65
2022/03/18 12:38:10;;;;;;;29.50;20.90;;;;;;;;;;4934041;29;20569;-65
2022/03/18 12:40:43;;;;;;;28.98;21.08;;;;;;;;;;4934083;29;20302;-65
2022/03/18 12:43:10;;;;;;;28.90;19.40;;;;;;;;;;4934358;29;20051;-65
2022/03/18 12:45:39;;;;;;;28.33;20.67;;;;;;;;;;4934331;29;20051;-65
2022/03/18 12:48:06;;;;;;;29.75;19.55;;;;;;;;;;4934000;29;20470;-65
2022/03/18 12:50:42;;;;;;;27.88;19.17;;;;;;;;;;4933876;29;20047;-64
2022/03/18 12:53:19;;;;;;;26.75;18.80;;;;;;;;;;4934107;29;20071;-64
2022/03/18 12:55:48;;;;;;;26.48;19.30;;;;;;;;;;4934368;29;20103;-65
2022/03/18 12:58:14;;;;;;;26.17;19.00;;;;;;;;;;4935010;29;20130;-65
2022/03/18 13:00:43;;;;;;;26.50;19.13;;;;;;;;;;4937734;29;20241;-65
2022/03/18 13:03:20;;;;;;;27.58;18.58;;;;;;;;;;4937667;29;20296;-65
2022/03/18 13:05:50;;;;;;;27.50;19.00;;;;;;;;;;4938256;29;20048;-65
2022/03/18 13:08:16;;;;;;;28.13;19.35;;;;;;;;;;4938058;29;20071;-65
2022/03/18 13:10:52;;;;;;;28.65;21.23;;;;;;;;;;4937397;29;20134;-64
2022/03/18 13:13:19;;;;;;;27.30;18.98;;;;;;;;;;4936493;29;20503;-65
2022/03/18 13:16:01;;;;;;;27.02;18.38;;;;;;;;;;4937337;29;20072;-65
2022/03/18 13:18:31;;;;;;;27.33;17.63;;;;;;;;;;4937572;29;20083;-65
2022/03/18 13:21:03;;;;;;;25.27;17.95;;;;;;;;;;4937367;29;20047;-65
2022/03/18 13:23:30;;;;;;;25.02;18.98;;;;;;;;;;4936862;29;20526;-65
2022/03/18 13:25:58;;;;;;;27.10;19.15;;;;;;;;;;4936064;29;20047;-65
2022/03/18 13:28:26;;;;;;;25.90;17.73;;;;;;;;;;4920597;29;20073;-64
2022/03/18 13:33:47;;;;;;;25.13;18.73;;;;;;;;;;4936059;29;20518;-65
2022/03/18 13:36:28;;;;;;;24.63;18.42;;;;;;;;;;4937252;29;20055;-65
2022/03/18 13:38:57;;;;;;;25.52;18.27;;;;;;;;;;4937195;29;20056;-65
2022/03/18 13:41:24;;;;;;;27.27;19.48;;;;;;;;;;4937035;29;20048;-65
2022/03/18 13:43:58;;;;;;;26.67;18.33;;;;;;;;;;4936792;29;20051;-65
2022/03/18 13:46:30;;;;;;;26.38;19.40;;;;;;;;;;4936944;29;20051;-65
2022/03/18 13:49:18;;;;;;;23.50;18.17;;;;;;;;;;4936640;29;20062;-65
2022/03/18 13:51:48;;;;;;;25.55;18.05;;;;;;;;;;4936950;29;20054;-65
2022/03/18 13:54:18;;;;;;;23.20;18.00;;;;;;;;;;4936789;29;20075;-65
2022/03/18 13:56:58;;;;;;;24.95;18.08;;;;;;;;;;4937361;29;20055;-65
2022/03/18 13:59:25;;;;;;;25.38;18.50;;;;;;;;;;4936355;29;20083;-65
2022/03/18 14:02:08;;;;;;;23.30;17.73;;;;;;;;;;4936620;29;20388;-65
2022/03/18 14:04:49;;;;;;;24.40;17.65;;;;;;;;;;4936764;29;20077;-65
2022/03/18 14:07:16;;;;;;;22.02;17.05;;;;;;;;;;4936492;29;20492;-65
2022/03/18 14:09:58;;;;;;;25.75;17.20;;;;;;;;;;4935290;29;20589;-65
2022/03/18 14:12:26;;;;;;;22.25;16.30;;;;;;;;;;4936606;29;20103;-65
2022/03/18 14:15:16;;;;;;;21.40;15.57;;;;;;;;;;4936354;29;20083;-65
2022/03/18 14:18:16;;;;;;;21.50;15.25;;;;;;;;;;4936507;29;20052;-65
2022/03/18 14:20:52;;;;;;;22.00;17.08;;;;;;;;;;4924579;29;20047;-65
2022/03/18 14:23:23;;;;;;;23.05;17.15;;;;;;;;;;4935851;29;20443;-65
2022/03/18 14:25:53;;;;;;;28.30;17.17;;;;;;;;;;4936078;29;20470;-63
2022/03/18 14:28:25;;;;;;;25.52;16.42;;;;;;;;;;4935878;29;20503;-65
2022/03/18 14:30:52;;;;;;;25.52;16.33;;;;;;;;;;4935930;29;20051;-65
2022/03/18 14:33:20;;;;;;;24.17;17.15;;;;;;;;;;4935829;29;20055;-65
2022/03/18 14:35:48;;;;;;;24.35;16.42;;;;;;;;;;4935799;29;20083;-65
2022/03/18 14:38:16;;;;;;;23.35;16.70;;;;;;;;;;4935894;29;20051;-65
2022/03/18 14:40:43;;;;;;;24.90;17.15;;;;;;;;;;4935622;29;20052;-65
2022/03/18 14:43:10;;;;;;;23.52;17.98;;;;;;;;;;4935522;29;20059;-65
2022/03/18 14:45:36;;;;;;;23.27;16.65;;;;;;;;;;4935993;29;20051;-65
2022/03/18 14:48:05;;;;;;;25.55;17.35;;;;;;;;;;4935879;29;20126;-65
2022/03/18 14:50:38;;;;;;;26.80;19.13;;;;;;;;;;4935812;29;20051;-65